Terminal Aerodrome Forecast
Issued by NWS

Home | Current Version | Previous Version | Text Only | Print | Product List | Glossary On
Versions: 1 2 3 4 5 6 7 8 9 10 11 12 13 14 15 16 17 18 19 20 21 22 23 24 25 26 27
246
FTUS46 KSEW 091149
TAFSEA
TAF
KSEA 091149Z 0912/1018 11006KT P6SM -SN SCT015 OVC030
      TEMPO 0912/0915 3SM -SN BKN015 OVC030
     FM091500 13008KT 6SM -RASN BR SCT015 OVC030
     FM091700 13008KT 6SM -RA BR BKN015 OVC030
     FM100300 17011KT 6SM -RA BR BKN020 OVC040
     FM100900 19009KT P6SM BKN025 OVC040 PROB30 1009/1015 -SHRA
     FM101500 17007KT P6SM SCT022 BKN035 OVC050 PROB30 1015/1018
      -RA=

USA.gov is the U.S. government's official web portal to all federal, state and local government web resources and services.